Time;durP1;ratioP1;P1;durP2;ratioP2;P2;SDS_P1;SDS_P2;PMS_P1;PMS_P2;Temp;Humidity;BMP_temperature;BMP_pressure;BME280_temperature;BME280_humidity;BME280_pressure;Samples;Min_cycle;Max_cycle;Signal;HPM_P1;HPM_P2
2023/01/20 00:00:49;;;;;;;24.27;12.30;;;;;;;;;;5025150;28;20033;-46
2023/01/20 00:03:15;;;;;;;28.17;12.73;;;;;;;;;;5023883;28;20108;-44
2023/01/20 00:05:50;;;;;;;25.77;12.25;;;;;;;;;;5024335;28;20082;-44
2023/01/20 00:08:16;;;;;;;24.48;12.13;;;;;;;;;;5023959;28;20037;-45
2023/01/20 00:10:42;;;;;;;22.90;11.57;;;;;;;;;;5023043;28;20025;-45
2023/01/20 00:13:08;;;;;;;19.48;11.05;;;;;;;;;;5022406;28;20033;-45
2023/01/20 00:15:34;;;;;;;18.35;9.85;;;;;;;;;;5023650;28;20099;-45
2023/01/20 00:18:00;;;;;;;16.95;9.45;;;;;;;;;;5023855;28;20368;-44
2023/01/20 00:20:26;;;;;;;16.13;9.55;;;;;;;;;;5023903;28;20132;-45
2023/01/20 00:22:52;;;;;;;16.52;10.18;;;;;;;;;;5023368;28;20029;-47
2023/01/20 00:25:18;;;;;;;15.43;9.55;;;;;;;;;;5024507;28;20026;-45
2023/01/20 00:27:45;;;;;;;17.17;10.10;;;;;;;;;;5023942;28;20101;-46
2023/01/20 00:30:11;;;;;;;15.45;8.95;;;;;;;;;;5023948;28;20136;-45
2023/01/20 00:32:38;;;;;;;15.38;8.32;;;;;;;;;;5022335;28;20507;-45
2023/01/20 00:35:05;;;;;;;14.57;8.48;;;;;;;;;;5024056;28;20021;-45
2023/01/20 00:37:31;;;;;;;15.63;9.10;;;;;;;;;;5022623;28;20075;-46
2023/01/20 00:39:57;;;;;;;17.98;10.80;;;;;;;;;;5024160;28;20101;-44
2023/01/20 00:42:23;;;;;;;20.65;10.65;;;;;;;;;;5023835;28;20661;-45
2023/01/20 00:44:49;;;;;;;17.05;9.68;;;;;;;;;;5024544;28;20029;-45
2023/01/20 00:47:15;;;;;;;15.38;9.65;;;;;;;;;;5023366;28;20104;-46
2023/01/20 00:49:42;;;;;;;13.55;8.70;;;;;;;;;;5024481;28;20808;-45
2023/01/20 00:52:08;;;;;;;16.95;9.27;;;;;;;;;;5023651;28;20037;-45
2023/01/20 00:54:34;;;;;;;16.38;9.10;;;;;;;;;;5023676;28;20021;-45
2023/01/20 00:57:01;;;;;;;17.33;9.57;;;;;;;;;;5023785;28;20037;-46
2023/01/20 00:59:27;;;;;;;16.00;9.05;;;;;;;;;;5022074;28;20053;-45
2023/01/20 01:01:53;;;;;;;14.50;8.65;;;;;;;;;;5023649;28;20026;-45
2023/01/20 01:04:20;;;;;;;13.27;7.90;;;;;;;;;;5022918;28;20022;-44
2023/01/20 06:11:16;;;;;;;8.35;6.05;;;;;;;;;;5041771;28;20045;-47
2023/01/20 06:13:43;;;;;;;11.20;6.38;;;;;;;;;;5032177;28;20087;-46
2023/01/20 06:16:10;;;;;;;10.85;6.68;;;;;;;;;;5042483;28;20036;-49
2023/01/20 06:18:36;;;;;;;8.23;5.60;;;;;;;;;;5049104;28;20074;-47
2023/01/20 06:21:02;;;;;;;9.65;6.43;;;;;;;;;;5049025;28;20033;-46
2023/01/20 06:23:28;;;;;;;10.25;6.00;;;;;;;;;;5049121;28;20035;-47
2023/01/20 06:26:13;;;;;;;9.93;5.90;;;;;;;;;;5048747;28;20040;-47
2023/01/20 06:28:39;;;;;;;9.00;5.90;;;;;;;;;;5045539;28;20122;-48
2023/01/20 06:31:06;;;;;;;9.52;5.32;;;;;;;;;;5028654;28;20022;-48
2023/01/20 06:33:32;;;;;;;9.75;6.15;;;;;;;;;;5028761;28;20443;-46
2023/01/20 06:35:58;;;;;;;10.50;5.63;;;;;;;;;;5038876;28;20067;-46
2023/01/20 06:38:25;;;;;;;7.88;5.25;;;;;;;;;;5049745;28;20024;-46
2023/01/20 06:41:02;;;;;;;9.07;6.00;;;;;;;;;;5048445;28;20033;-47
2023/01/20 06:43:29;;;;;;;11.05;6.20;;;;;;;;;;5048524;28;20025;-48
2023/01/20 06:45:59;;;;;;;7.97;5.03;;;;;;;;;;5048489;28;20032;-48
2023/01/20 06:48:25;;;;;;;7.15;5.25;;;;;;;;;;5048229;28;20471;-46
2023/01/20 06:50:51;;;;;;;8.30;5.53;;;;;;;;;;5049075;28;20063;-47
2023/01/20 06:53:17;;;;;;;7.32;4.88;;;;;;;;;;5057681;28;20028;-47
2023/01/20 06:55:43;;;;;;;7.35;5.15;;;;;;;;;;5049406;28;20033;-47
2023/01/20 06:58:10;;;;;;;7.80;5.22;;;;;;;;;;5049630;28;20047;-46
2023/01/20 07:00:36;;;;;;;8.27;4.97;;;;;;;;;;5049615;28;20538;-46
2023/01/20 07:03:02;;;;;;;6.97;5.07;;;;;;;;;;5049824;28;20469;-47
2023/01/20 07:05:28;;;;;;;8.88;5.80;;;;;;;;;;5044089;28;20100;-47
2023/01/20 07:07:54;;;;;;;7.88;5.25;;;;;;;;;;5048887;28;20041;-46
2023/01/20 07:10:20;;;;;;;9.70;5.43;;;;;;;;;;5049701;28;20581;-47
2023/01/20 07:12:46;;;;;;;9.23;5.90;;;;;;;;;;5049048;28;20032;-46
2023/01/20 07:15:12;;;;;;;9.30;5.63;;;;;;;;;;5048164;28;20052;-47
2023/01/20 07:17:38;;;;;;;8.52;5.40;;;;;;;;;;5046899;28;20061;-47
2023/01/20 07:20:04;;;;;;;8.55;5.35;;;;;;;;;;5048035;28;20419;-47
2023/01/20 07:22:30;;;;;;;8.70;5.00;;;;;;;;;;5047418;28;20499;-46
2023/01/20 07:24:56;;;;;;;9.10;5.28;;;;;;;;;;5047086;28;20091;-47
2023/01/20 07:27:23;;;;;;;9.30;5.53;;;;;;;;;;5048418;28;20104;-48
2023/01/20 07:29:49;;;;;;;9.45;6.10;;;;;;;;;;5047637;28;20512;-47
2023/01/20 07:32:15;;;;;;;10.48;6.57;;;;;;;;;;5046524;28;20035;-46
2023/01/20 07:34:41;;;;;;;9.80;6.18;;;;;;;;;;5047887;28;20025;-46
2023/01/20 07:37:07;;;;;;;7.68;5.47;;;;;;;;;;5045602;28;20491;-47
2023/01/20 07:39:35;;;;;;;8.95;5.38;;;;;;;;;;5046609;28;20021;-47
2023/01/20 07:42:02;;;;;;;9.25;6.05;;;;;;;;;;5048067;28;20450;-46
2023/01/20 07:44:28;;;;;;;8.13;5.53;;;;;;;;;;5046116;28;20025;-47
2023/01/20 07:46:54;;;;;;;10.52;5.25;;;;;;;;;;5046731;28;20352;-47
2023/01/20 07:49:20;;;;;;;6.50;4.57;;;;;;;;;;5048467;28;20124;-47
2023/01/20 07:51:46;;;;;;;7.60;5.25;;;;;;;;;;5045514;28;20078;-46
2023/01/20 07:54:12;;;;;;;9.32;5.38;;;;;;;;;;5043325;28;20025;-46
2023/01/20 07:56:38;;;;;;;7.45;4.75;;;;;;;;;;5046244;28;20063;-47
2023/01/20 07:59:04;;;;;;;8.05;4.93;;;;;;;;;;5047061;28;20061;-47
2023/01/20 08:01:30;;;;;;;7.05;4.55;;;;;;;;;;5048173;28;20112;-47
2023/01/20 08:03:59;;;;;;;7.60;4.78;;;;;;;;;;5048205;28;20040;-47
2023/01/20 08:06:25;;;;;;;6.68;4.38;;;;;;;;;;5046709;28;20029;-47
2023/01/20 08:08:52;;;;;;;7.90;4.63;;;;;;;;;;5048308;28;20107;-47
2023/01/20 08:11:19;;;;;;;5.90;4.35;;;;;;;;;;5041495;28;20036;-47
2023/01/20 08:13:45;;;;;;;8.38;4.90;;;;;;;;;;5027610;28;20547;-47
2023/01/20 08:16:12;;;;;;;6.65;4.22;;;;;;;;;;5027262;28;20026;-47
2023/01/20 08:18:39;;;;;;;5.85;3.95;;;;;;;;;;5026003;28;20022;-47
2023/01/20 08:21:07;;;;;;;7.18;4.25;;;;;;;;;;5021536;28;20038;-47
2023/01/20 08:23:36;;;;;;;6.18;4.32;;;;;;;;;;5025627;28;20389;-49
2023/01/20 08:26:04;;;;;;;6.03;3.97;;;;;;;;;;5026110;28;20068;-47
2023/01/20 08:28:31;;;;;;;8.52;4.55;;;;;;;;;;5025139;28;20042;-47
2023/01/20 08:31:27;;;;;;;7.22;4.38;;;;;;;;;;5025032;28;20030;-47
2023/01/20 08:33:54;;;;;;;6.07;4.10;;;;;;;;;;5008258;28;20042;-47
2023/01/20 08:36:27;;;;;;;7.10;4.60;;;;;;;;;;5026686;28;20036;-46
2023/01/20 08:38:54;;;;;;;7.35;4.97;;;;;;;;;;5028536;28;20040;-47
2023/01/20 08:41:22;;;;;;;8.52;4.72;;;;;;;;;;5029225;28;20528;-47
2023/01/20 08:43:50;;;;;;;6.28;4.32;;;;;;;;;;5028832;28;20025;-47
2023/01/20 08:46:17;;;;;;;7.70;4.55;;;;;;;;;;5029282;28;20032;-48
2023/01/20 08:48:45;;;;;;;7.07;4.25;;;;;;;;;;5029094;28;20045;-46
2023/01/20 08:51:15;;;;;;;9.05;5.05;;;;;;;;;;5027911;28;20440;-47
2023/01/20 08:53:41;;;;;;;9.25;5.13;;;;;;;;;;5028890;28;20030;-46
2023/01/20 08:56:08;;;;;;;8.27;5.30;;;;;;;;;;5028680;28;20025;-47
2023/01/20 08:58:34;;;;;;;9.73;5.75;;;;;;;;;;5028869;28;20032;-48
2023/01/20 09:01:01;;;;;;;15.38;7.55;;;;;;;;;;5027868;28;20045;-48
2023/01/20 09:03:27;;;;;;;15.20;7.88;;;;;;;;;;5028182;28;20610;-48
2023/01/20 09:05:53;;;;;;;13.98;8.23;;;;;;;;;;5029975;28;20091;-46
2023/01/20 09:08:19;;;;;;;13.55;7.25;;;;;;;;;;5029239;28;20808;-47
2023/01/20 09:10:46;;;;;;;10.65;6.82;;;;;;;;;;5029999;28;20079;-47
2023/01/20 09:13:12;;;;;;;15.60;6.38;;;;;;;;;;5045568;28;20025;-47
2023/01/20 09:15:38;;;;;;;9.98;5.50;;;;;;;;;;5050340;28;20036;-49
2023/01/20 09:18:04;;;;;;;10.38;5.97;;;;;;;;;;5049836;28;20492;-48
2023/01/20 09:20:30;;;;;;;9.60;5.45;;;;;;;;;;5050443;28;20534;-47
2023/01/20 09:23:00;;;;;;;8.52;5.30;;;;;;;;;;5049505;28;20017;-47
2023/01/20 09:25:26;;;;;;;8.85;5.97;;;;;;;;;;5049637;28;20104;-46
2023/01/20 09:27:52;;;;;;;11.05;5.28;;;;;;;;;;5049454;28;20025;-46
2023/01/20 09:30:18;;;;;;;8.57;5.30;;;;;;;;;;5049759;28;20025;-49
2023/01/20 09:32:44;;;;;;;8.77;5.75;;;;;;;;;;5048745;28;20091;-45
2023/01/20 09:35:10;;;;;;;8.35;5.32;;;;;;;;;;5049673;28;20044;-47
2023/01/20 09:46:17;;;;;;;7.78;5.22;;;;;;;;;;5049561;28;20052;-45
2023/01/20 09:54:45;;;;;;;7.43;5.10;;;;;;;;;;5049362;28;20078;-47
2023/01/20 09:57:12;;;;;;;7.35;5.20;;;;;;;;;;5048942;28;20369;-45
2023/01/20 09:59:50;;;;;;;7.30;4.78;;;;;;;;;;5049251;28;20025;-45
2023/01/20 10:02:27;;;;;;;6.95;4.55;;;;;;;;;;5048164;28;20037;-45
2023/01/20 10:04:58;;;;;;;7.72;5.25;;;;;;;;;;5047610;28;20091;-44
2023/01/20 10:07:37;;;;;;;8.43;5.07;;;;;;;;;;5046687;28;20044;-44
2023/01/20 10:10:22;;;;;;;7.47;5.03;;;;;;;;;;5047108;28;20396;-43
2023/01/20 10:12:53;;;;;;;8.25;5.32;;;;;;;;;;5045389;28;20159;-44
2023/01/20 10:15:19;;;;;;;7.70;4.88;;;;;;;;;;5027528;28;20033;-44
2023/01/20 10:17:49;;;;;;;8.60;5.20;;;;;;;;;;5026723;28;20033;-43
2023/01/20 10:20:19;;;;;;;9.02;6.15;;;;;;;;;;5017418;28;20518;-44
2023/01/20 10:22:49;;;;;;;7.15;4.90;;;;;;;;;;5025043;28;20044;-44
2023/01/20 10:25:17;;;;;;;10.13;5.78;;;;;;;;;;5027929;28;20035;-43
2023/01/20 10:28:03;;;;;;;6.78;5.10;;;;;;;;;;5025817;28;20416;-45
2023/01/20 10:30:31;;;;;;;7.68;5.20;;;;;;;;;;5024225;28;20092;-43
2023/01/20 10:33:03;;;;;;;8.25;5.15;;;;;;;;;;5026880;28;20025;-43
2023/01/20 10:35:35;;;;;;;8.68;5.53;;;;;;;;;;5026905;28;20053;-43
2023/01/20 10:38:02;;;;;;;8.70;5.72;;;;;;;;;;5027088;28;20179;-45
2023/01/20 10:40:38;;;;;;;7.82;5.15;;;;;;;;;;5027030;28;20117;-44
2023/01/20 10:43:10;;;;;;;8.93;5.68;;;;;;;;;;5026853;28;20030;-46
2023/01/20 10:45:45;;;;;;;8.18;5.80;;;;;;;;;;5026515;28;20072;-44
2023/01/20 10:48:23;;;;;;;8.90;5.30;;;;;;;;;;5026673;28;20041;-43
2023/01/20 10:51:12;;;;;;;8.35;5.45;;;;;;;;;;5026425;28;20029;-43
2023/01/20 10:53:46;;;;;;;7.88;5.45;;;;;;;;;;5015404;28;20037;-46
2023/01/20 10:56:12;;;;;;;;;;;;;;;;;;5027143;28;20048;-44
2023/01/20 10:58:43;;;;;;;8.68;5.45;;;;;;;;;;5026075;28;20450;-43
2023/01/20 11:01:12;;;;;;;7.82;5.45;;;;;;;;;;5025499;28;20031;-44
2023/01/20 11:03:43;;;;;;;9.02;5.97;;;;;;;;;;5026616;28;20044;-46
2023/01/20 11:06:19;;;;;;;8.50;5.40;;;;;;;;;;5026772;28;20364;-43
2023/01/20 11:08:45;;;;;;;7.70;5.35;;;;;;;;;;5025287;28;20110;-44
2023/01/20 11:11:14;;;;;;;9.02;5.95;;;;;;;;;;5025343;28;20025;-45
2023/01/20 11:13:40;;;;;;;7.40;5.10;;;;;;;;;;5026508;28;20131;-43
2023/01/20 11:16:12;;;;;;;7.78;5.40;;;;;;;;;;5025483;28;20026;-44
2023/01/20 11:18:38;;;;;;;8.93;5.82;;;;;;;;;;5024933;28;20103;-44
2023/01/20 11:21:06;;;;;;;8.10;5.20;;;;;;;;;;5025070;28;20033;-44
2023/01/20 11:23:36;;;;;;;8.60;5.53;;;;;;;;;;5025029;28;20124;-48
2023/01/20 11:26:08;;;;;;;10.10;5.82;;;;;;;;;;5025886;28;20489;-45
2023/01/20 11:28:49;;;;;;;9.23;6.22;;;;;;;;;;5023916;28;20677;-46
2023/01/20 11:31:15;;;;;;;9.32;5.82;;;;;;;;;;5025803;28;20531;-44
2023/01/20 11:33:53;;;;;;;11.23;7.35;;;;;;;;;;5027272;28;20030;-47
2023/01/20 11:36:22;;;;;;;11.05;6.40;;;;;;;;;;5027210;28;20053;-44
2023/01/20 11:38:49;;;;;;;10.27;6.63;;;;;;;;;;5007058;28;20385;-44
2023/01/20 11:41:29;;;;;;;10.63;6.47;;;;;;;;;;5007960;28;20099;-45
2023/01/20 11:43:59;;;;;;;13.55;7.45;;;;;;;;;;5007124;28;20061;-44
2023/01/20 11:46:25;;;;;;;10.82;7.63;;;;;;;;;;5006656;28;20026;-44
2023/01/20 11:49:11;;;;;;;11.95;7.13;;;;;;;;;;5025487;28;20033;-44
2023/01/20 11:51:44;;;;;;;11.00;7.25;;;;;;;;;;5026687;28;20037;-47
2023/01/20 11:54:14;;;;;;;12.48;8.00;;;;;;;;;;5026343;28;20483;-47
2023/01/20 11:56:43;;;;;;;10.43;7.00;;;;;;;;;;5026782;28;20026;-46
2023/01/20 11:59:21;;;;;;;10.52;6.85;;;;;;;;;;5025356;28;20834;-47
2023/01/20 12:02:10;;;;;;;13.52;7.85;;;;;;;;;;5026052;28;20104;-44
2023/01/20 12:04:38;;;;;;;15.20;8.50;;;;;;;;;;5019876;28;20045;-43
2023/01/20 12:07:31;;;;;;;13.18;7.93;;;;;;;;;;5024443;28;20026;-43
2023/01/20 12:10:04;;;;;;;13.43;7.35;;;;;;;;;;4995759;28;20045;-44
2023/01/20 12:12:39;;;;;;;9.15;6.40;;;;;;;;;;5020963;28;20045;-42
2023/01/20 12:15:10;;;;;;;10.07;6.32;;;;;;;;;;5025290;28;20040;-43
2023/01/20 12:17:39;;;;;;;9.57;5.85;;;;;;;;;;5033888;28;20407;-46
2023/01/20 12:20:08;;;;;;;10.02;6.50;;;;;;;;;;5043903;28;20047;-44
2023/01/20 12:22:40;;;;;;;10.75;6.65;;;;;;;;;;5044015;28;20048;-45
2023/01/20 12:25:18;;;;;;;9.85;6.97;;;;;;;;;;5046323;28;20051;-44
2023/01/20 12:27:53;;;;;;;7.60;5.00;;;;;;;;;;5044269;28;20404;-45
2023/01/20 12:30:38;;;;;;;8.27;5.63;;;;;;;;;;5045045;28;20051;-43
2023/01/20 12:33:05;;;;;;;7.70;5.07;;;;;;;;;;5045048;28;20078;-47
2023/01/20 12:35:38;;;;;;;7.03;5.03;;;;;;;;;;5044837;28;20100;-44
2023/01/20 12:38:08;;;;;;;7.10;5.10;;;;;;;;;;5045135;28;20033;-44
2023/01/20 12:40:42;;;;;;;7.13;4.55;;;;;;;;;;5044502;28;20654;-44
2023/01/20 12:43:17;;;;;;;6.55;4.43;;;;;;;;;;5044827;28;20028;-43
2023/01/20 12:45:52;;;;;;;6.20;4.38;;;;;;;;;;5044970;28;20108;-46
2023/01/20 12:48:42;;;;;;;6.72;5.13;;;;;;;;;;5043560;28;20488;-45
2023/01/20 12:51:08;;;;;;;6.20;4.65;;;;;;;;;;5007608;28;20265;-44
2023/01/20 12:53:37;;;;;;;6.07;4.30;;;;;;;;;;5044760;28;20017;-45
2023/01/20 12:56:15;;;;;;;9.00;5.30;;;;;;;;;;5044978;28;20017;-45
2023/01/20 12:58:41;;;;;;;8.60;4.68;;;;;;;;;;5044729;28;20044;-44
2023/01/20 13:01:24;;;;;;;8.23;5.00;;;;;;;;;;5044769;28;20025;-45
2023/01/20 13:03:50;;;;;;;10.45;5.70;;;;;;;;;;5044828;28;20037;-44
2023/01/20 13:06:22;;;;;;;11.73;5.70;;;;;;;;;;5044773;28;20392;-44
2023/01/20 13:08:56;;;;;;;9.55;5.45;;;;;;;;;;5044799;28;20025;-44
2023/01/20 13:11:40;;;;;;;9.30;5.47;;;;;;;;;;5041162;28;20525;-43
2023/01/20 13:14:06;;;;;;;10.13;5.22;;;;;;;;;;5023364;28;20485;-44
2023/01/20 13:16:32;;;;;;;7.60;4.43;;;;;;;;;;5024686;28;20040;-43
2023/01/20 13:19:02;;;;;;;7.55;4.82;;;;;;;;;;5025416;28;20107;-45
2023/01/20 13:21:30;;;;;;;5.40;3.88;;;;;;;;;;5025259;28;20053;-45
2023/01/20 13:23:58;;;;;;;5.35;3.55;;;;;;;;;;5027823;28;20484;-45
2023/01/20 13:26:24;;;;;;;6.43;3.80;;;;;;;;;;5028392;28;20076;-46
2023/01/20 13:28:51;;;;;;;6.03;3.88;;;;;;;;;;5028165;28;20337;-44
2023/01/20 13:31:29;;;;;;;6.63;4.43;;;;;;;;;;5028185;28;20454;-43
2023/01/20 13:34:15;;;;;;;5.68;3.47;;;;;;;;;;5028908;28;20030;-45
2023/01/20 13:37:02;;;;;;;6.20;4.43;;;;;;;;;;5028016;28;20033;-45
2023/01/20 13:39:28;;;;;;;5.28;3.83;;;;;;;;;;5028480;28;20025;-45
2023/01/20 13:41:54;;;;;;;7.15;4.20;;;;;;;;;;5028069;28;20049;-44
2023/01/20 13:44:35;;;;;;;5.35;3.80;;;;;;;;;;5028447;28;20069;-47
2023/01/20 13:47:02;;;;;;;4.88;3.33;;;;;;;;;;5028337;28;20112;-44
2023/01/20 13:49:29;;;;;;;5.70;3.65;;;;;;;;;;5028955;28;20492;-43
2023/01/20 13:51:55;;;;;;;4.35;3.13;;;;;;;;;;5027748;28;20013;-48
2023/01/20 13:54:24;;;;;;;4.25;3.20;;;;;;;;;;5027971;28;20053;-47
2023/01/20 13:56:51;;;;;;;4.72;3.63;;;;;;;;;;5027866;28;20060;-45
2023/01/20 13:59:17;;;;;;;4.63;3.60;;;;;;;;;;5027778;28;20029;-48
2023/01/20 14:01:43;;;;;;;3.95;2.97;;;;;;;;;;5027592;28;20100;-45
2023/01/20 14:04:17;;;;;;;4.68;3.25;;;;;;;;;;5027725;28;20108;-48
2023/01/20 14:06:47;;;;;;;4.88;3.08;;;;;;;;;;5027661;28;20022;-44
2023/01/20 14:09:20;;;;;;;5.07;3.22;;;;;;;;;;5027509;28;20080;-45
2023/01/20 14:11:50;;;;;;;3.78;2.90;;;;;;;;;;5027335;28;20044;-44
2023/01/20 14:14:24;;;;;;;3.33;2.58;;;;;;;;;;5027584;28;20037;-46
2023/01/20 14:16:50;;;;;;;5.57;2.87;;;;;;;;;;5027452;28;21079;-45
2023/01/20 14:19:22;;;;;;;4.15;2.75;;;;;;;;;;5027599;28;20104;-44
2023/01/20 14:21:53;;;;;;;2.58;2.08;;;;;;;;;;5027264;28;20236;-46
2023/01/20 14:24:36;;;;;;;3.13;2.40;;;;;;;;;;5027117;28;20037;-47
2023/01/20 14:27:13;;;;;;;3.20;2.17;;;;;;;;;;5027313;28;20087;-44
2023/01/20 14:29:39;;;;;;;3.03;2.22;;;;;;;;;;5027189;28;20026;-44
2023/01/20 14:32:23;;;;;;;4.15;2.33;;;;;;;;;;5026921;28;20033;-43
2023/01/20 14:34:50;;;;;;;2.70;2.08;;;;;;;;;;5027056;28;20408;-47
2023/01/20 14:37:25;;;;;;;2.20;1.90;;;;;;;;;;5026798;28;20049;-44
2023/01/20 14:39:53;;;;;;;3.28;2.03;;;;;;;;;;5026684;28;20487;-47
2023/01/20 14:42:20;;;;;;;3.00;2.28;;;;;;;;;;5026785;28;20026;-44
2023/01/20 14:44:47;;;;;;;3.83;2.85;;;;;;;;;;5026961;28;20025;-45
2023/01/20 14:47:13;;;;;;;2.95;2.30;;;;;;;;;;5026832;28;20116;-45
2023/01/20 14:49:42;;;;;;;3.35;2.35;;;;;;;;;;5026903;28;20033;-47
2023/01/20 14:52:10;;;;;;;2.60;1.95;;;;;;;;;;5026584;28;20032;-44
2023/01/20 14:54:38;;;;;;;3.53;2.40;;;;;;;;;;5026677;28;20029;-48
2023/01/20 14:57:12;;;;;;;3.40;2.40;;;;;;;;;;5026890;28;20025;-47
2023/01/20 14:59:38;;;;;;;3.55;2.47;;;;;;;;;;5026651;28;20104;-44
2023/01/20 15:02:05;;;;;;;4.05;2.17;;;;;;;;;;5026414;28;20025;-46
2023/01/20 15:04:35;;;;;;;2.95;2.20;;;;;;;;;;5026412;28;20030;-44
2023/01/20 15:07:01;;;;;;;2.78;2.03;;;;;;;;;;5026117;28;20496;-44
2023/01/20 15:09:29;;;;;;;3.30;2.30;;;;;;;;;;5026887;28;20104;-44
2023/01/20 15:12:14;;;;;;;3.78;2.20;;;;;;;;;;5026794;28;20033;-44
2023/01/20 15:14:40;;;;;;;3.20;2.30;;;;;;;;;;5026136;28;20087;-47
2023/01/20 15:17:08;;;;;;;3.10;2.50;;;;;;;;;;5026292;28;20435;-44
2023/01/20 15:19:34;;;;;;;4.43;2.65;;;;;;;;;;5026094;28;20028;-44
2023/01/20 15:22:17;;;;;;;3.38;2.30;;;;;;;;;;5026454;28;20547;-45
2023/01/20 15:24:46;;;;;;;3.53;2.20;;;;;;;;;;5025997;28;20060;-45
2023/01/20 15:27:21;;;;;;;4.60;2.55;;;;;;;;;;5026470;28;20396;-45
2023/01/20 15:29:59;;;;;;;2.92;2.15;;;;;;;;;;5026110;28;20025;-46
2023/01/20 15:32:26;;;;;;;3.60;2.45;;;;;;;;;;5026044;28;20551;-45
2023/01/20 15:34:52;;;;;;;3.05;2.45;;;;;;;;;;5026065;28;20104;-46
2023/01/20 15:37:18;;;;;;;3.80;2.70;;;;;;;;;;5025823;28;20104;-44
2023/01/20 15:39:44;;;;;;;4.03;2.55;;;;;;;;;;5025587;28;20450;-45
2023/01/20 15:42:11;;;;;;;2.72;2.30;;;;;;;;;;5025928;28;20072;-47
2023/01/20 15:44:37;;;;;;;4.00;2.60;;;;;;;;;;5025871;28;20052;-45
2023/01/20 15:47:12;;;;;;;4.05;2.88;;;;;;;;;;5025441;28;20581;-44
2023/01/20 15:49:37;;;;;;;4.00;2.70;;;;;;;;;;5025435;28;20033;-45
2023/01/20 15:52:04;;;;;;;4.03;2.85;;;;;;;;;;5025505;28;20026;-48
2023/01/20 15:54:30;;;;;;;4.13;3.03;;;;;;;;;;5026449;28;20025;-44
2023/01/20 15:56:56;;;;;;;4.95;3.28;;;;;;;;;;5025885;28;20080;-46
2023/01/20 15:59:24;;;;;;;5.65;3.40;;;;;;;;;;5025446;28;20081;-46
2023/01/20 16:01:51;;;;;;;4.55;3.00;;;;;;;;;;5025708;28;20396;-46
2023/01/20 16:04:17;;;;;;;6.70;3.30;;;;;;;;;;5025707;28;20104;-44
2023/01/20 16:06:43;;;;;;;4.95;3.28;;;;;;;;;;5025482;28;20400;-48
2023/01/20 16:09:24;;;;;;;4.50;3.05;;;;;;;;;;5025293;28;20021;-44
2023/01/20 16:11:50;;;;;;;5.25;3.28;;;;;;;;;;5025121;28;20041;-46
2023/01/20 16:14:16;;;;;;;3.90;2.75;;;;;;;;;;5025025;28;20079;-47
2023/01/20 16:16:42;;;;;;;3.78;2.60;;;;;;;;;;5025336;28;20026;-44
2023/01/20 16:19:11;;;;;;;5.47;3.28;;;;;;;;;;5022011;28;20057;-44
2023/01/20 16:21:37;;;;;;;4.28;2.90;;;;;;;;;;5005458;28;20049;-46
2023/01/20 16:24:04;;;;;;;5.75;3.38;;;;;;;;;;5021383;28;20523;-45
2023/01/20 16:26:31;;;;;;;5.63;3.40;;;;;;;;;;5025045;28;20547;-44
2023/01/20 16:28:57;;;;;;;6.10;3.80;;;;;;;;;;5025046;28;20106;-44
2023/01/20 16:31:24;;;;;;;7.40;4.35;;;;;;;;;;5025031;28;20033;-44
2023/01/20 16:33:51;;;;;;;5.55;3.63;;;;;;;;;;5024623;28;20128;-46
2023/01/20 16:36:19;;;;;;;7.03;4.45;;;;;;;;;;5023925;28;20515;-44
2023/01/20 16:38:45;;;;;;;8.15;4.70;;;;;;;;;;5024460;28;20029;-44
2023/01/20 16:41:21;;;;;;;8.27;5.13;;;;;;;;;;5026975;28;20049;-44
2023/01/20 16:43:47;;;;;;;6.75;4.45;;;;;;;;;;5044977;28;20025;-48
2023/01/20 16:46:24;;;;;;;7.25;5.07;;;;;;;;;;5028113;28;20488;-44
2023/01/20 16:48:50;;;;;;;6.82;4.18;;;;;;;;;;5024841;28;20033;-43
2023/01/20 16:51:17;;;;;;;6.15;3.90;;;;;;;;;;5025346;28;20693;-47
2023/01/20 16:53:43;;;;;;;6.10;3.78;;;;;;;;;;5023765;28;20025;-47
2023/01/20 16:56:17;;;;;;;6.90;4.20;;;;;;;;;;5024459;28;20169;-45
2023/01/20 16:58:43;;;;;;;5.43;3.95;;;;;;;;;;5028525;28;20029;-43
2023/01/20 17:01:12;;;;;;;4.72;3.15;;;;;;;;;;5028684;28;20040;-45
2023/01/20 17:03:39;;;;;;;4.20;3.30;;;;;;;;;;5028638;28;20025;-44
2023/01/20 17:06:12;;;;;;;4.95;3.30;;;;;;;;;;5028757;28;20029;-44
2023/01/20 17:08:38;;;;;;;6.05;3.58;;;;;;;;;;5027152;28;20030;-45
2023/01/20 17:11:04;;;;;;;7.70;3.58;;;;;;;;;;5027508;28;20040;-43
2023/01/20 17:13:30;;;;;;;6.20;3.80;;;;;;;;;;5050191;28;20025;-44
2023/01/20 17:15:58;;;;;;;5.85;3.85;;;;;;;;;;5048472;28;20036;-44
2023/01/20 17:18:24;;;;;;;5.10;3.33;;;;;;;;;;5049615;28;20532;-47
2023/01/20 17:20:51;;;;;;;7.43;3.85;;;;;;;;;;5049185;28;20028;-44
2023/01/20 17:23:17;;;;;;;6.88;3.65;;;;;;;;;;5047100;28;20024;-44
2023/01/20 17:25:43;;;;;;;6.85;3.53;;;;;;;;;;5046677;28;20462;-45
2023/01/20 17:28:09;;;;;;;8.57;5.10;;;;;;;;;;5048181;28;20032;-45
2023/01/20 17:30:37;;;;;;;9.15;4.55;;;;;;;;;;5046452;28;20032;-44
2023/01/20 17:33:03;;;;;;;8.27;4.68;;;;;;;;;;5048745;28;20020;-47
2023/01/20 17:35:29;;;;;;;7.68;3.70;;;;;;;;;;5049847;28;20112;-44
2023/01/20 17:37:56;;;;;;;7.97;4.57;;;;;;;;;;5047287;28;20021;-45
2023/01/20 17:40:22;;;;;;;6.80;4.15;;;;;;;;;;5047669;28;20412;-46
2023/01/20 17:42:51;;;;;;;5.55;3.72;;;;;;;;;;5030800;28;20041;-48
2023/01/20 17:45:18;;;;;;;5.78;3.53;;;;;;;;;;5048100;28;20096;-47
2023/01/20 17:47:43;;;;;;;6.55;4.30;;;;;;;;;;5048633;28;20033;-47
2023/01/20 17:50:10;;;;;;;5.82;4.03;;;;;;;;;;5049070;28;20055;-47
2023/01/20 17:52:36;;;;;;;6.50;3.92;;;;;;;;;;5048299;28;20021;-46
2023/01/20 17:55:02;;;;;;;5.90;3.90;;;;;;;;;;5048024;28;20444;-49
2023/01/20 17:57:31;;;;;;;6.38;4.05;;;;;;;;;;5048130;28;20033;-48
2023/01/20 17:59:57;;;;;;;8.52;5.53;;;;;;;;;;5044083;28;20033;-49
2023/01/20 18:02:23;;;;;;;8.75;5.47;;;;;;;;;;5036541;28;20480;-47
2023/01/20 18:04:50;;;;;;;10.07;7.28;;;;;;;;;;5043588;28;20064;-45
2023/01/20 18:07:16;;;;;;;15.95;10.60;;;;;;;;;;5046478;28;20455;-49
2023/01/20 18:09:43;;;;;;;19.50;11.95;;;;;;;;;;5044455;28;20514;-50
2023/01/20 18:12:09;;;;;;;16.58;11.23;;;;;;;;;;5046251;28;20049;-47
2023/01/20 18:14:35;;;;;;;14.00;9.43;;;;;;;;;;5046859;28;20340;-48
2023/01/20 18:17:01;;;;;;;14.23;8.82;;;;;;;;;;5045396;28;20025;-48
2023/01/20 18:19:27;;;;;;;13.27;7.97;;;;;;;;;;5029366;28;20025;-47
2023/01/20 18:21:53;;;;;;;12.20;7.72;;;;;;;;;;5026972;28;20040;-48
2023/01/20 18:24:20;;;;;;;11.65;7.22;;;;;;;;;;5046009;28;20421;-51
2023/01/20 18:26:46;;;;;;;11.82;7.10;;;;;;;;;;5045898;28;20112;-46
2023/01/20 18:29:15;;;;;;;9.82;6.80;;;;;;;;;;5045902;28;20025;-47
2023/01/20 18:31:41;;;;;;;9.93;6.07;;;;;;;;;;5045194;28;20033;-48
2023/01/20 18:34:09;;;;;;;9.35;5.93;;;;;;;;;;5044115;28;20108;-49
2023/01/20 18:36:37;;;;;;;8.90;6.03;;;;;;;;;;5044876;28;20504;-48
2023/01/20 18:39:05;;;;;;;8.32;6.00;;;;;;;;;;5046676;28;20229;-46
2023/01/20 18:41:34;;;;;;;10.93;6.13;;;;;;;;;;5045459;28;20138;-46
2023/01/20 18:44:00;;;;;;;8.43;5.25;;;;;;;;;;5044918;28;20527;-46
2023/01/20 18:46:26;;;;;;;7.68;5.32;;;;;;;;;;5044100;28;20292;-47
2023/01/20 18:48:54;;;;;;;7.80;5.50;;;;;;;;;;5043209;28;20029;-46
2023/01/20 18:51:20;;;;;;;8.73;6.10;;;;;;;;;;5043823;28;20041;-47
2023/01/20 18:53:52;;;;;;;9.00;5.95;;;;;;;;;;5044676;28;20107;-45
2023/01/20 18:56:18;;;;;;;10.57;6.30;;;;;;;;;;5044109;28;20025;-47
2023/01/20 18:58:46;;;;;;;10.20;6.50;;;;;;;;;;5052454;28;20033;-47
2023/01/20 19:01:15;;;;;;;10.32;6.32;;;;;;;;;;5044852;28;20029;-46
2023/01/20 19:03:42;;;;;;;10.70;6.30;;;;;;;;;;5049805;28;20025;-46
2023/01/20 19:06:10;;;;;;;13.63;6.97;;;;;;;;;;5042431;28;20032;-47
2023/01/20 19:08:37;;;;;;;13.32;7.18;;;;;;;;;;5043190;28;20029;-47
2023/01/20 19:11:04;;;;;;;10.35;6.28;;;;;;;;;;5039621;28;20091;-45
2023/01/20 19:13:31;;;;;;;14.65;7.45;;;;;;;;;;5042938;28;20116;-46
2023/01/20 19:15:58;;;;;;;10.57;6.35;;;;;;;;;;5044433;28;20039;-45
2023/01/20 19:18:24;;;;;;;11.30;6.45;;;;;;;;;;5041231;28;20028;-47
2023/01/20 19:20:51;;;;;;;11.05;6.15;;;;;;;;;;5038437;28;20048;-45
2023/01/20 19:23:17;;;;;;;8.88;5.60;;;;;;;;;;5042718;28;20374;-45
2023/01/20 19:25:43;;;;;;;9.55;6.13;;;;;;;;;;5041617;28;20091;-47
2023/01/20 19:28:10;;;;;;;10.98;5.90;;;;;;;;;;5039122;28;20057;-46
2023/01/20 19:30:40;;;;;;;8.00;5.15;;;;;;;;;;5044473;28;20025;-46
2023/01/20 19:33:10;;;;;;;9.25;5.45;;;;;;;;;;5044055;28;20074;-45
2023/01/20 19:35:36;;;;;;;9.40;5.82;;;;;;;;;;5045658;28;20096;-46
2023/01/20 19:38:02;;;;;;;8.00;4.78;;;;;;;;;;5044855;28;20523;-45
2023/01/20 19:40:29;;;;;;;10.60;6.05;;;;;;;;;;5045151;28;20037;-45
2023/01/20 19:42:55;;;;;;;8.18;5.78;;;;;;;;;;5045020;28;20057;-45
2023/01/20 19:45:21;;;;;;;8.98;5.68;;;;;;;;;;5042763;28;20492;-45
2023/01/20 19:47:47;;;;;;;8.70;5.30;;;;;;;;;;5043875;28;20029;-47
2023/01/20 19:50:13;;;;;;;10.60;6.00;;;;;;;;;;5044125;28;20419;-45
2023/01/20 19:52:40;;;;;;;9.25;5.53;;;;;;;;;;5039934;28;20017;-46
2023/01/20 19:55:09;;;;;;;8.85;5.93;;;;;;;;;;5042401;28;20033;-47
2023/01/20 19:57:36;;;;;;;10.40;6.78;;;;;;;;;;5043865;28;20053;-46
2023/01/20 20:00:03;;;;;;;11.45;6.95;;;;;;;;;;5042733;28;20094;-46
2023/01/20 20:02:29;;;;;;;12.20;8.10;;;;;;;;;;5046559;28;20053;-45
2023/01/20 20:04:56;;;;;;;13.75;8.32;;;;;;;;;;5043063;28;20507;-45
2023/01/20 20:07:22;;;;;;;13.60;8.52;;;;;;;;;;5043786;28;20029;-48